Time;durP1;ratioP1;P1;durP2;ratioP2;P2;SDS_P1;SDS_P2;PMS_P1;PMS_P2;Temp;Humidity;BMP_temperature;BMP_pressure;BME280_temperature;BME280_humidity;BME280_pressure;Samples;Min_cycle;Max_cycle;Signal;HPM_P1;HPM_P2
2023/03/29 00:01:52;;;;;;;1.7;1.6;;;;;;;3.27;79.92676;942.9208;;;;
2023/03/29 00:04:19;;;;;;;1.4;1.3;;;;;;;3.24;80.40625;942.7842;;;;
2023/03/29 00:06:49;;;;;;;1.9;1.7;;;;;;;3.47;80.34863;942.8325;;;;
2023/03/29 00:09:14;;;;;;;2.5;1.4;;;;;;;3.58;80.59277;942.9425;;;;
2023/03/29 00:11:41;;;;;;;1.4;1.3;;;;;;;3.72;80.13672;942.9701;;;;
2023/03/29 00:14:06;;;;;;;2.1;1.2;;;;;;;3.81;80.37695;942.8788;;;;
2023/03/29 00:16:34;;;;;;;1.6;1.1;;;;;;;3.8;81.43164;942.9253;;;;
2023/03/29 00:18:59;;;;;;;1.8;1.2;;;;;;;3.78;82.02344;942.9742;;;;
2023/03/29 00:21:27;;;;;;;2.9;1.9;;;;;;;3.78;82.73145;942.9677;;;;
2023/03/29 00:23:52;;;;;;;3.2;2.1;;;;;;;3.77;82.91016;942.9375;;;;
2023/03/29 00:26:17;;;;;;;3.1;2;;;;;;;3.77;83.72852;943.046;;;;
2023/03/29 00:28:42;;;;;;;2;1.4;;;;;;;3.84;83.25;943.0244;;;;
2023/03/29 00:31:10;;;;;;;1.7;1.1;;;;;;;3.8;83.15137;943.0126;;;;
2023/03/29 00:33:36;;;;;;;2.1;1.4;;;;;;;3.56;83.73438;943.0828;;;;
2023/03/29 00:36:04;;;;;;;2.4;1.6;;;;;;;3.49;83.66602;943.1853;;;;
2023/03/29 00:38:29;;;;;;;2.4;1.4;;;;;;;3.59;84.05664;943.1517;;;;
2023/03/29 00:40:56;;;;;;;2.8;1.4;;;;;;;3.69;84.11719;943.0646;;;;
2023/03/29 00:43:22;;;;;;;1.4;1.3;;;;;;;3.73;84.38672;943.0981;;;;
2023/03/29 00:45:48;;;;;;;2;1.5;;;;;;;3.84;84.54297;943.1573;;;;
2023/03/29 00:48:14;;;;;;;1.2;1.1;;;;;;;3.81;84.97363;943.2042;;;;
2023/03/29 00:50:38;;;;;;;1.2;1;;;;;;;3.81;84.61426;943.2247;;;;
2023/03/29 00:53:03;;;;;;;1.9;1.1;;;;;;;3.84;84.65527;943.2087;;;;
2023/03/29 00:55:28;;;;;;;1.3;1;;;;;;;3.86;84.49023;943.2162;;;;
2023/03/29 00:57:54;;;;;;;1.1;1;;;;;;;3.65;85.50488;943.1301;;;;
2023/03/29 01:00:19;;;;;;;1;0.9;;;;;;;3.53;86.56934;942.9867;;;;
2023/03/29 01:02:44;;;;;;;1.1;1;;;;;;;3.41;87.73535;942.9839;;;;
2023/03/29 01:05:09;;;;;;;0.9;0.9;;;;;;;3.46;88.56641;943.0084;;;;
2023/03/29 01:07:34;;;;;;;1.1;1;;;;;;;3.53;88.72559;943.0087;;;;
2023/03/29 01:09:59;;;;;;;0.8;0.8;;;;;;;3.53;89.34375;942.9858;;;;
2023/03/29 01:12:24;;;;;;;1.4;1;;;;;;;3.51;89.11719;942.913;;;;
2023/03/29 01:14:49;;;;;;;0.8;0.8;;;;;;;3.48;89.10938;942.9508;;;;
2023/03/29 01:17:15;;;;;;;1.1;0.8;;;;;;;3.47;89.53418;942.9246;;;;
2023/03/29 01:19:43;;;;;;;1.1;1;;;;;;;3.33;90.00977;942.8503;;;;
2023/03/29 01:22:07;;;;;;;1.1;1;;;;;;;3.02;91.64941;942.9135;;;;
2023/03/29 01:24:33;;;;;;;1.9;1.2;;;;;;;3;92.53223;942.8879;;;;
2023/03/29 01:27:21;;;;;;;1.1;1;;;;;;;2.88;92.91016;942.8984;;;;
2023/03/29 01:29:46;;;;;;;1.8;1.1;;;;;;;2.86;93.27441;942.9177;;;;
2023/03/29 01:32:11;;;;;;;1.5;1.2;;;;;;;2.93;93.34668;942.8658;;;;
2023/03/29 01:34:36;;;;;;;1.4;1.2;;;;;;;2.94;93.60645;942.7065;;;;
2023/03/29 01:37:03;;;;;;;2;1.6;;;;;;;3.03;93.37988;942.6848;;;;
2023/03/29 01:39:29;;;;;;;2.2;1.5;;;;;;;2.87;93.55664;942.6042;;;;
2023/03/29 01:41:54;;;;;;;2.2;1.6;;;;;;;2.69;94.3916;942.5069;;;;
2023/03/29 01:44:23;;;;;;;2.3;1.6;;;;;;;2.74;94.85156;942.3616;;;;
2023/03/29 01:46:48;;;;;;;3.6;2.3;;;;;;;2.78;94.47852;942.3859;;;;
2023/03/29 01:49:13;;;;;;;3.1;2.5;;;;;;;2.76;95.02441;942.3208;;;;
2023/03/29 01:51:38;;;;;;;3.2;2.2;;;;;;;2.73;94.37891;942.3077;;;;
2023/03/29 01:54:36;;;;;;;4.6;2.8;;;;;;;2.7;94.83301;942.4149;;;;
2023/03/29 01:57:03;;;;;;;2.1;1.8;;;;;;;2.62;95.50781;942.3936;;;;
2023/03/29 01:59:27;;;;;;;1.7;1.6;;;;;;;2.63;95.52246;942.4107;;;;
2023/03/29 02:01:52;;;;;;;2.4;1.6;;;;;;;2.52;96.12598;942.3452;;;;
2023/03/29 02:04:21;;;;;;;2.5;1.7;;;;;;;2.54;96.17285;942.382;;;;
2023/03/29 02:06:49;;;;;;;1.6;1.5;;;;;;;2.47;96.55078;942.3434;;;;
2023/03/29 02:09:12;;;;;;;1.7;1.4;;;;;;;2.53;96.22852;942.3658;;;;
2023/03/29 02:11:37;;;;;;;1.8;1.5;;;;;;;2.64;96.01758;942.2502;;;;
2023/03/29 02:14:02;;;;;;;2;1.5;;;;;;;2.53;95.54492;942.2573;;;;
2023/03/29 02:16:28;;;;;;;1.8;1.4;;;;;;;2.55;96.28906;942.0973;;;;
2023/03/29 02:18:57;;;;;;;2.2;1.6;;;;;;;2.72;96.06836;942.157;;;;
2023/03/29 02:21:22;;;;;;;1.9;1.6;;;;;;;2.72;95.55176;942.1271;;;;
2023/03/29 02:23:53;;;;;;;1.8;1.5;;;;;;;2.73;95.18652;942.0622;;;;
2023/03/29 02:26:34;;;;;;;2.4;1.7;;;;;;;2.74;95.30078;941.8528;;;;
2023/03/29 02:28:59;;;;;;;1.7;1.5;;;;;;;2.63;95.26465;941.9085;;;;
2023/03/29 02:34:55;;;;;;;1.9;1.5;;;;;;;2.86;95.43848;941.9149;;;;
2023/03/29 02:37:23;;;;;;;2.5;1.3;;;;;;;2.94;95.33398;941.9348;;;;
2023/03/29 02:39:47;;;;;;;1.8;1.3;;;;;;;3.01;94.91406;941.8655;;;;
2023/03/29 02:42:15;;;;;;;1.2;1.1;;;;;;;2.94;95.23242;941.8375;;;;
2023/03/29 02:44:39;;;;;;;1.6;1.3;;;;;;;2.89;95.29004;941.7151;;;;
2023/03/29 02:47:05;;;;;;;1.2;1.1;;;;;;;2.92;95.67578;941.7783;;;;
2023/03/29 02:49:30;;;;;;;1.5;1.3;;;;;;;3.05;95.13379;941.8789;;;;
2023/03/29 02:51:55;;;;;;;1.3;1.2;;;;;;;3.19;94.4248;941.9231;;;;
2023/03/29 02:54:22;;;;;;;1.5;1.2;;;;;;;3.11;94.84473;941.7869;;;;
2023/03/29 02:56:47;;;;;;;1.3;1;;;;;;;3.11;94.6543;941.8639;;;;
2023/03/29 02:59:18;;;;;;;1.2;1.1;;;;;;;3.11;95.11426;941.7516;;;;
2023/03/29 03:01:44;;;;;;;1.1;1;;;;;;;3.23;94.99219;941.8535;;;;
2023/03/29 03:04:09;;;;;;;2.1;1.4;;;;;;;3.27;94.87012;941.7525;;;;
2023/03/29 03:06:36;;;;;;;2.1;1.6;;;;;;;3.31;94.70801;941.8035;;;;
2023/03/29 03:09:01;;;;;;;1.3;1.1;;;;;;;3.3;94.90918;941.7999;;;;
2023/03/29 03:11:28;;;;;;;1.7;1.4;;;;;;;3.34;94.81836;941.9191;;;;
2023/03/29 03:16:20;;;;;;;2;1.5;;;;;;;3.22;94.38672;941.9839;;;;
2023/03/29 03:19:12;;;;;;;2.9;1.6;;;;;;;3.1;94.49512;942.0768;;;;
2023/03/29 03:21:39;;;;;;;2.4;1.5;;;;;;;2.95;94.69629;942.1344;;;;
2023/03/29 03:24:06;;;;;;;1.8;1.4;;;;;;;2.8;95.07715;942.1258;;;;
2023/03/29 03:26:34;;;;;;;1.6;1.3;;;;;;;2.8;95.39355;942.1351;;;;
2023/03/29 03:28:59;;;;;;;1.9;1.3;;;;;;;2.92;94.75586;942.0803;;;;
2023/03/29 03:31:24;;;;;;;1.3;1.2;;;;;;;2.99;94.52539;942.0109;;;;
2023/03/29 03:33:53;;;;;;;2.4;1.8;;;;;;;3.02;94.21875;942.056;;;;
2023/03/29 03:36:18;;;;;;;1.7;1.6;;;;;;;3.09;93.96582;941.9953;;;;
2023/03/29 03:38:43;;;;;;;1.2;0.8;;;;;;;3.08;93.87402;941.9252;;;;
2023/03/29 03:41:11;;;;;;;1.2;1;;;;;;;3.01;94.62305;941.9425;;;;
2023/03/29 03:43:36;;;;;;;1.7;0.9;;;;;;;2.98;95.0498;941.8745;;;;
2023/03/29 03:46:03;;;;;;;1.7;1;;;;;;;2.98;95.32129;941.8103;;;;
2023/03/29 03:48:28;;;;;;;0.8;0.8;;;;;;;2.9;95.6377;941.6266;;;;
2023/03/29 03:50:55;;;;;;;1.4;1;;;;;;;3;95.53711;941.553;;;;
2023/03/29 03:53:20;;;;;;;1.4;1.2;;;;;;;3.08;95.37695;941.4481;;;;
2023/03/29 03:55:48;;;;;;;1.5;1.4;;;;;;;3.16;95.03418;941.3705;;;;
2023/03/29 03:58:13;;;;;;;1.4;1.1;;;;;;;3.14;95.16504;941.3948;;;;
2023/03/29 04:02:34;;;;;;;1.1;1;;;;;;;2.84;96.74707;941.1852;;;;
2023/03/29 04:05:03;;;;;;;1.2;1;;;;;;;2.83;97.47559;941.1189;;;;
2023/03/29 04:07:28;;;;;;;0.9;0.8;;;;;;;2.93;97.66309;941.0787;;;;
2023/03/29 04:09:53;;;;;;;1.3;1;;;;;;;2.99;97.75781;941.0305;;;;
2023/03/29 04:12:18;;;;;;;1.6;1.5;;;;;;;3;97.56738;941.0991;;;;
2023/03/29 04:14:46;;;;;;;1.3;1;;;;;;;2.94;97.64453;941.1234;;;;
2023/03/29 04:17:11;;;;;;;1.2;1.1;;;;;;;3.08;97.33008;941.0927;;;;
2023/03/29 04:19:40;;;;;;;2.5;1.6;;;;;;;3.12;97.5293;941.0956;;;;
2023/03/29 04:22:05;;;;;;;1.1;1;;;;;;;3.27;97.12598;940.9458;;;;
2023/03/29 04:24:32;;;;;;;1;0.7;;;;;;;3.28;96.67773;940.9397;;;;
2023/03/29 04:26:57;;;;;;;1.1;1;;;;;;;3.13;97.10645;940.8958;;;;
2023/03/29 04:29:25;;;;;;;0.8;0.8;;;;;;;3.22;97.42871;940.9711;;;;
2023/03/29 04:31:50;;;;;;;6.9;6.2;;;;;;;3.12;97.31543;940.9118;;;;
2023/03/29 04:34:15;;;;;;;1.4;1.1;;;;;;;3;97.63477;940.8703;;;;
2023/03/29 04:37:20;;;;;;;32.5;26;;;;;;;3.12;98.03418;940.807;;;;
2023/03/29 04:39:43;;;;;;;1.8;1.5;;;;;;;3.28;97.61133;940.8989;;;;
2023/03/29 04:42:13;;;;;;;4.4;3.3;;;;;;;3.34;97.55859;940.8936;;;;
2023/03/29 04:44:59;;;;;;;1.4;1.3;;;;;;;3.3;97.76074;940.8367;;;;
2023/03/29 04:47:23;;;;;;;1.5;1.4;;;;;;;3.33;97.72266;940.7623;;;;
2023/03/29 04:49:49;;;;;;;7.7;7.1;;;;;;;3.38;97.30859;940.8156;;;;
2023/03/29 04:52:15;;;;;;;1.9;1.2;;;;;;;3.33;97.7002;940.7844;;;;
2023/03/29 04:54:45;;;;;;;1.7;1.6;;;;;;;3.33;97.64355;940.7971;;;;
2023/03/29 04:57:26;;;;;;;1.6;1.4;;;;;;;3.33;97.43262;940.787;;;;
2023/03/29 04:59:55;;;;;;;2.1;1.9;;;;;;;3.22;97.93359;940.7227;;;;
2023/03/29 05:02:19;;;;;;;2.7;1.8;;;;;;;3.26;98.29199;940.7291;;;;
2023/03/29 05:04:48;;;;;;;1.8;1.7;;;;;;;3.32;98.3291;940.8817;;;;
2023/03/29 05:07:14;;;;;;;10.7;9.9;;;;;;;3.4;97.78418;940.847;;;;
2023/03/29 05:09:42;;;;;;;1.3;1.2;;;;;;;3.31;97.24707;940.8656;;;;
2023/03/29 05:12:12;;;;;;;9.4;8.5;;;;;;;3.26;97.5957;940.8267;;;;
2023/03/29 05:17:47;;;;;;;2.4;2.2;;;;;;;3.41;97.62891;940.7731;;;;
2023/03/29 05:20:12;;;;;;;4.4;2.9;;;;;;;3.35;97.87305;940.6876;;;;
2023/03/29 05:22:40;;;;;;;3;2.2;;;;;;;3.27;97.69922;940.7701;;;;
2023/03/29 05:25:05;;;;;;;2;1.7;;;;;;;3.23;98.50781;940.7222;;;;
2023/03/29 05:27:34;;;;;;;151.1;67.5;;;;;;;3.32;98.44141;940.6088;;;;
2023/03/29 05:30:00;;;;;;;39.7;15.8;;;;;;;3.35;97.68164;940.587;;;;
2023/03/29 05:32:28;;;;;;;1.5;1.3;;;;;;;3.48;97.27441;940.6191;;;;
2023/03/29 05:34:53;;;;;;;2;1.3;;;;;;;3.56;97.34961;940.5948;;;;
2023/03/29 05:37:22;;;;;;;1.5;1.1;;;;;;;3.65;97.08984;940.5655;;;;
2023/03/29 05:39:53;;;;;;;1.4;1.3;;;;;;;3.59;97.5332;940.4927;;;;
2023/03/29 05:42:21;;;;;;;2.1;0.9;;;;;;;3.58;97.6123;940.6261;;;;
2023/03/29 05:44:45;;;;;;;1.9;1;;;;;;;3.58;97.88184;940.5705;;;;
2023/03/29 05:47:10;;;;;;;2;1.2;;;;;;;3.6;97.71973;940.572;;;;
2023/03/29 05:49:57;;;;;;;1.4;1.3;;;;;;;3.72;97.25195;940.5997;;;;
2023/03/29 05:52:22;;;;;;;1.9;1.6;;;;;;;3.85;96.3457;940.6088;;;;
2023/03/29 05:58:04;;;;;;;0.8;0.8;;;;;;;3.89;94.84961;940.6473;;;;
2023/03/29 06:00:33;;;;;;;2.2;1.4;;;;;;;4.04;94.1416;940.6273;;;;
2023/03/29 06:02:55;;;;;;;1.4;1.3;;;;;;;4.12;93.34961;940.7314;;;;
2023/03/29 06:05:22;;;;;;;4.8;3.9;;;;;;;4.11;93.08887;940.6606;;;;
2023/03/29 06:07:51;;;;;;;5.4;3.7;;;;;;;4.16;92.87402;940.7239;;;;
2023/03/29 06:10:16;;;;;;;9.4;5.9;;;;;;;4.23;93.3623;940.7978;;;;
2023/03/29 06:12:43;;;;;;;5.7;4;;;;;;;4.25;94.32422;940.8413;;;;
2023/03/29 06:15:09;;;;;;;5;3.2;;;;;;;4.15;94.49121;940.8876;;;;
2023/03/29 06:17:34;;;;;;;4.8;3.9;;;;;;;4.09;95.40039;940.9561;;;;
2023/03/29 06:20:03;;;;;;;3.5;2.6;;;;;;;4.06;95.97852;941.0179;;;;
2023/03/29 06:22:26;;;;;;;2.9;2.1;;;;;;;4;96.36035;941.014;;;;
2023/03/29 06:24:51;;;;;;;1.7;1.5;;;;;;;4.09;96.25488;941.0131;;;;
2023/03/29 06:27:18;;;;;;;1.2;1.1;;;;;;;4.15;94.89648;941.0681;;;;
2023/03/29 06:29:44;;;;;;;1.8;1.7;;;;;;;4.25;95.21094;941.0153;;;;
2023/03/29 06:32:13;;;;;;;1.8;1.4;;;;;;;4.13;96.2666;941.0706;;;;
2023/03/29 06:34:38;;;;;;;1.7;1.6;;;;;;;4.21;96.41797;941.0492;;;;
2023/03/29 06:37:07;;;;;;;2.1;1.5;;;;;;;4.28;96.64648;941.1386;;;;
2023/03/29 06:39:32;;;;;;;1.8;1.7;;;;;;;4.23;96.6582;941.1383;;;;
2023/03/29 06:41:59;;;;;;;3.1;2.6;;;;;;;4.36;96.2168;941.1038;;;;
2023/03/29 06:44:27;;;;;;;2.1;1.8;;;;;;;4.41;96.33984;941.1248;;;;
2023/03/29 06:46:54;;;;;;;3.6;1.9;;;;;;;4.37;96.27539;941.0941;;;;
2023/03/29 06:49:20;;;;;;;4.5;2.7;;;;;;;4.5;96.13281;941.1801;;;;
2023/03/29 06:51:47;;;;;;;4.5;3.1;;;;;;;4.7;95.43652;941.2502;;;;
2023/03/29 06:54:12;;;;;;;4.1;3.4;;;;;;;4.7;94.625;941.2374;;;;
2023/03/29 06:56:40;;;;;;;4.6;3.7;;;;;;;4.46;93.96484;941.3592;;;;
2023/03/29 06:59:06;;;;;;;5.9;4.3;;;;;;;4.51;95.06738;941.3627;;;;
2023/03/29 07:01:36;;;;;;;4.2;3.1;;;;;;;4.54;94.88379;941.2559;;;;
2023/03/29 07:04:08;;;;;;;3.2;2.6;;;;;;;4.63;94.42871;941.3461;;;;
2023/03/29 07:06:31;;;;;;;6.6;4;;;;;;;4.79;94.92676;941.3959;;;;
2023/03/29 07:09:01;;;;;;;5.4;3.5;;;;;;;4.85;94.80566;941.366;;;;
2023/03/29 07:11:26;;;;;;;6.4;4.3;;;;;;;4.93;94.4502;941.4116;;;;
2023/03/29 07:13:55;;;;;;;7.1;4.8;;;;;;;5.09;94.39355;941.4109;;;;
2023/03/29 07:16:26;;;;;;;6.7;4.4;;;;;;;5.02;93.5;941.5034;;;;
2023/03/29 07:18:54;;;;;;;6.4;3.9;;;;;;;5.06;94.29785;941.4573;;;;
2023/03/29 07:21:19;;;;;;;6.9;4.4;;;;;;;5.05;94.21875;941.3663;;;;
2023/03/29 07:23:47;;;;;;;19.6;11;;;;;;;5.15;94.52441;941.4347;;;;
2023/03/29 07:26:13;;;;;;;15.5;8.5;;;;;;;5.2;94.29785;941.4246;;;;
2023/03/29 07:28:39;;;;;;;14.8;8.9;;;;;;;5.06;94.64844;941.4164;;;;
2023/03/29 07:31:05;;;;;;;6.4;4.6;;;;;;;4.97;94.51367;941.3347;;;;
2023/03/29 07:33:31;;;;;;;6.7;3.8;;;;;;;4.93;95.22754;941.3549;;;;
2023/03/29 07:36:02;;;;;;;5.7;3.9;;;;;;;4.97;95.11133;941.3694;;;;
2023/03/29 07:38:31;;;;;;;5.1;3.9;;;;;;;5.17;95.08984;941.3168;;;;
2023/03/29 07:41:00;;;;;;;6.3;4.3;;;;;;;5.02;94.94531;941.4001;;;;
2023/03/29 07:43:25;;;;;;;7.3;4.9;;;;;;;5.08;95.22754;941.5071;;;;
2023/03/29 07:45:54;;;;;;;7.4;5;;;;;;;5.26;95.48242;941.5627;;;;
2023/03/29 07:48:19;;;;;;;10.7;6.7;;;;;;;5.32;95.02051;941.5906;;;;
2023/03/29 07:50:48;;;;;;;8;5.5;;;;;;;5.37;94.32227;941.5252;;;;
2023/03/29 07:53:16;;;;;;;6.7;4.8;;;;;;;5.57;93.74512;941.5613;;;;
2023/03/29 07:55:45;;;;;;;3.8;2.9;;;;;;;5.59;91.31348;941.5361;;;;
2023/03/29 07:58:06;;;;;;;2.8;2.3;;;;;;;5.79;91.53613;941.5983;;;;
2023/03/29 08:00:36;;;;;;;2.9;2;;;;;;;5.82;90.61621;941.5813;;;;
2023/03/29 08:03:02;;;;;;;2.3;1.5;;;;;;;5.75;88.43262;941.5717;;;;
2023/03/29 08:05:26;;;;;;;2.5;1.8;;;;;;;5.87;89.0459;941.6739;;;;
2023/03/29 08:07:55;;;;;;;2.1;1.6;;;;;;;5.82;89.53223;941.6105;;;;
2023/03/29 08:10:21;;;;;;;2.2;1.4;;;;;;;5.76;88.48145;941.6583;;;;
2023/03/29 08:12:48;;;;;;;1.9;1.8;;;;;;;5.71;89.72363;941.7268;;;;
2023/03/29 08:15:15;;;;;;;7.8;5.6;;;;;;;5.64;90.4082;941.7;;;;
2023/03/29 08:17:41;;;;;;;12;8.1;;;;;;;5.58;91.81934;941.6686;;;;
2023/03/29 08:20:14;;;;;;;5.2;4.5;;;;;;;5.45;92.89355;941.7587;;;;
2023/03/29 08:22:44;;;;;;;4.8;4.3;;;;;;;5.49;93.64844;941.6403;;;;
2023/03/29 08:25:18;;;;;;;3.6;3;;;;;;;5.48;93.04785;941.6074;;;;
2023/03/29 08:27:46;;;;;;;7.3;4.7;;;;;;;5.69;93.72559;941.6928;;;;
2023/03/29 08:30:11;;;;;;;3.2;2.3;;;;;;;5.76;93.37109;941.6731;;;;
2023/03/29 08:32:38;;;;;;;2.3;2.1;;;;;;;5.7;92.92578;941.6252;;;;
2023/03/29 08:35:05;;;;;;;2.5;2;;;;;;;5.77;91.58691;941.6641;;;;
2023/03/29 08:37:36;;;;;;;2.5;1.9;;;;;;;5.84;92.31348;941.6965;;;;
2023/03/29 08:40:07;;;;;;;1.7;1.2;;;;;;;5.82;91.58691;941.5924;;;;
2023/03/29 08:42:32;;;;;;;0.8;0.8;;;;;;;5.81;90.09473;941.5977;;;;
2023/03/29 08:44:58;;;;;;;1.1;1;;;;;;;5.93;90.79883;941.4724;;;;
2023/03/29 08:47:28;;;;;;;2.5;1.6;;;;;;;6.05;90.91406;941.4788;;;;
2023/03/29 08:49:53;;;;;;;3;1.9;;;;;;;6.17;91.19922;941.4333;;;;
2023/03/29 08:52:18;;;;;;;2.3;1.8;;;;;;;6.39;90.74805;941.4039;;;;
2023/03/29 08:54:44;;;;;;;5.1;4.2;;;;;;;6.48;87.53223;941.3674;;;;
2023/03/29 08:57:12;;;;;;;1.4;1.3;;;;;;;6.4;87.94727;941.3063;;;;
2023/03/29 08:59:42;;;;;;;24.4;13.4;;;;;;;6.55;89.82031;941.4009;;;;
2023/03/29 09:02:09;;;;;;;2.3;1.7;;;;;;;6.76;89.45703;941.2413;;;;
2023/03/29 09:04:35;;;;;;;2;1.5;;;;;;;6.91;89.11523;941.404;;;;
2023/03/29 09:07:00;;;;;;;2.5;2.2;;;;;;;6.79;88.61328;941.3117;;;;
2023/03/29 09:09:30;;;;;;;5.9;3.9;;;;;;;7.06;88.31836;941.4425;;;;
2023/03/29 09:11:58;;;;;;;4.9;2.2;;;;;;;7.37;87.0459;941.3713;;;;
2023/03/29 09:14:24;;;;;;;3.2;2.3;;;;;;;7.3;85.76172;941.3045;;;;
2023/03/29 09:16:49;;;;;;;3.2;2.7;;;;;;;7.39;87.36719;941.3439;;;;
2023/03/29 09:19:14;;;;;;;3.4;2.4;;;;;;;7.45;87.22168;941.2634;;;;
2023/03/29 09:21:39;;;;;;;2.7;2.1;;;;;;;7.62;86.5166;941.2181;;;;
2023/03/29 09:24:04;;;;;;;2.2;1.8;;;;;;;7.92;81.91309;941.1877;;;;
2023/03/29 09:26:30;;;;;;;1.7;1.6;;;;;;;8.33;80.81055;941.1177;;;;
2023/03/29 09:28:54;;;;;;;3.8;2.3;;;;;;;8.61;79.74902;941.0858;;;;
2023/03/29 09:31:23;;;;;;;3.6;2.6;;;;;;;8.93;80.67188;941.1545;;;;
2023/03/29 09:33:49;;;;;;;2.5;2.1;;;;;;;8.95;79.35645;941.1596;;;;
2023/03/29 09:36:14;;;;;;;2.4;1.6;;;;;;;8.79;79.54395;941.1038;;;;
2023/03/29 09:38:40;;;;;;;2.7;1.4;;;;;;;8.93;78.5;941.1719;;;;
2023/03/29 09:41:05;;;;;;;1.7;1.1;;;;;;;8.96;78.88184;941.1472;;;;
2023/03/29 09:43:34;;;;;;;1.9;1.2;;;;;;;9.64;80.55566;941.1245;;;;
2023/03/29 09:45:59;;;;;;;1.7;0.9;;;;;;;9.73;76.51465;941.087;;;;
2023/03/29 09:48:27;;;;;;;0.8;0.8;;;;;;;9.3;76.17773;941.0217;;;;
2023/03/29 09:50:57;;;;;;;2.6;1.1;;;;;;;9.12;76.15723;941.0379;;;;
2023/03/29 09:53:22;;;;;;;1.2;0.9;;;;;;;8.99;80.27637;941.0486;;;;
2023/03/29 09:55:47;;;;;;;0.7;0.7;;;;;;;9.18;77.29395;941.0327;;;;
2023/03/29 09:58:12;;;;;;;1.5;0.8;;;;;;;9.52;78.23242;940.9869;;;;
2023/03/29 10:00:42;;;;;;;1.1;1;;;;;;;9.72;76.0459;940.9023;;;;
2023/03/29 10:03:07;;;;;;;1.6;1;;;;;;;9.66;79.33008;940.8434;;;;
2023/03/29 10:05:37;;;;;;;1;0.9;;;;;;;9.99;76.31055;940.7145;;;;
2023/03/29 10:08:02;;;;;;;1.3;0.9;;;;;;;10.05;75.4873;940.7874;;;;
2023/03/29 10:10:27;;;;;;;1.3;1;;;;;;;9.94;74.5918;940.7902;;;;
2023/03/29 10:12:53;;;;;;;2;1;;;;;;;9.76;76.50977;940.9381;;;;
2023/03/29 10:15:21;;;;;;;0.9;0.9;;;;;;;9.74;76.0498;940.8868;;;;
2023/03/29 10:17:46;;;;;;;3;1.4;;;;;;;9.47;76.02441;940.9121;;;;
2023/03/29 10:20:21;;;;;;;1.8;1.2;;;;;;;9.25;76.08691;940.8228;;;;
2023/03/29 10:22:47;;;;;;;1.8;1.4;;;;;;;9.35;76.36816;940.8326;;;;
2023/03/29 10:25:17;;;;;;;2.1;1.3;;;;;;;9.39;76.63672;940.695;;;;
2023/03/29 10:27:42;;;;;;;1.5;1.1;;;;;;;9.76;74.57129;940.6573;;;;
2023/03/29 10:30:07;;;;;;;1.8;1.5;;;;;;;9.35;77.39258;940.796;;;;
2023/03/29 10:32:33;;;;;;;1.5;1;;;;;;;9.65;75.99902;940.6206;;;;
2023/03/29 10:35:00;;;;;;;2.5;1.1;;;;;;;9.99;73.40234;940.6685;;;;
2023/03/29 10:37:25;;;;;;;2.8;1.5;;;;;;;10.21;73.89551;940.6523;;;;
2023/03/29 10:39:51;;;;;;;2.4;1.5;;;;;;;10.18;73.09082;940.6079;;;;
2023/03/29 10:42:20;;;;;;;1.8;1;;;;;;;10.67;73.39258;940.5338;;;;
2023/03/29 10:44:45;;;;;;;0.8;0.8;;;;;;;11.06;70.35059;940.5492;;;;
2023/03/29 10:47:12;;;;;;;2.7;1;;;;;;;10.93;71.86914;940.5171;;;;
2023/03/29 10:49:37;;;;;;;2.5;1;;;;;;;11.19;71.10254;940.4447;;;;
2023/03/29 10:52:03;;;;;;;1.1;0.8;;;;;;;11.57;68.14355;940.3834;;;;
2023/03/29 10:54:31;;;;;;;1.5;0.9;;;;;;;11.63;69.55957;940.3667;;;;
2023/03/29 10:56:56;;;;;;;1.2;1;;;;;;;11.79;67.61816;940.2822;;;;
2023/03/29 10:59:22;;;;;;;1.4;1.3;;;;;;;12.72;67.63672;940.2302;;;;
2023/03/29 11:01:46;;;;;;;2.6;0.7;;;;;;;13.66;64.50391;940.1727;;;;
2023/03/29 11:04:11;;;;;;;2.2;0.8;;;;;;;13.78;61.38184;940.2336;;;;
2023/03/29 11:06:39;;;;;;;1.5;1;;;;;;;13.35;61.6543;940.1365;;;;
2023/03/29 11:09:06;;;;;;;4.2;1.8;;;;;;;13.14;63.05957;940.217;;;;
2023/03/29 11:11:31;;;;;;;1.8;1.1;;;;;;;13.09;59.78027;940.1042;;;;
2023/03/29 11:13:56;;;;;;;3.1;1.4;;;;;;;12.93;63.55762;940.1761;;;;
2023/03/29 11:16:22;;;;;;;0.9;0.8;;;;;;;12.71;63.96191;940.0751;;;;
2023/03/29 11:18:50;;;;;;;4.6;2.2;;;;;;;12.6;63.1875;940.0217;;;;
2023/03/29 11:22:08;;;;;;;1.5;0.8;;;;;;;12.96;64.3418;939.9844;;;;
2023/03/29 11:24:32;;;;;;;1.9;0.9;;;;;;;13.57;62.68555;939.9579;;;;
2023/03/29 11:26:57;;;;;;;1.3;0.8;;;;;;;13.54;62.96875;939.9651;;;;
2023/03/29 11:29:23;;;;;;;1;0.9;;;;;;;14.33;60.83594;939.9961;;;;
2023/03/29 11:31:48;;;;;;;1.2;0.7;;;;;;;14.74;57.07813;939.9404;;;;
2023/03/29 11:34:13;;;;;;;1.8;0.7;;;;;;;15.06;59.09375;939.9636;;;;
2023/03/29 11:36:38;;;;;;;3.9;1.4;;;;;;;15.77;56.63477;939.998;;;;
2023/03/29 11:39:09;;;;;;;0.6;0.5;;;;;;;16.39;54.03125;939.8799;;;;
2023/03/29 11:41:36;;;;;;;0.6;0.6;;;;;;;15.53;54.44336;939.9525;;;;
2023/03/29 11:44:01;;;;;;;1.4;0.9;;;;;;;15.6;54.41797;939.861;;;;
2023/03/29 11:46:26;;;;;;;2.5;0.9;;;;;;;16.24;53.76855;939.7883;;;;
2023/03/29 11:48:51;;;;;;;2.1;0.6;;;;;;;16.39;54.54004;939.6717;;;;
2023/03/29 11:51:16;;;;;;;2.6;1;;;;;;;17.26;52.58398;939.682;;;;
2023/03/29 11:53:43;;;;;;;2.5;1;;;;;;;18.09;49.03516;939.6344;;;;
2023/03/29 11:56:13;;;;;;;1.4;0.7;;;;;;;17.37;48.57129;939.555;;;;
2023/03/29 11:58:41;;;;;;;1.2;0.7;;;;;;;16.18;50.75391;939.517;;;;
2023/03/29 12:01:06;;;;;;;1.9;0.7;;;;;;;16.78;52.39844;939.4391;;;;
2023/03/29 12:03:32;;;;;;;1.7;0.6;;;;;;;17.94;48.97168;939.4966;;;;
2023/03/29 12:05:56;;;;;;;1.6;0.6;;;;;;;19.42;45.07031;939.4819;;;;
2023/03/29 12:08:22;;;;;;;1.1;0.6;;;;;;;19.32;43.83691;939.3967;;;;
2023/03/29 12:10:47;;;;;;;1.1;0.7;;;;;;;18.83;45.33691;939.4049;;;;
2023/03/29 12:13:12;;;;;;;1.2;0.7;;;;;;;18.72;43.89355;939.4215;;;;
2023/03/29 12:15:41;;;;;;;2;0.8;;;;;;;19.58;44.03809;939.3638;;;;
2023/03/29 12:18:08;;;;;;;1;0.6;;;;;;;20.17;39.3916;939.3713;;;;
2023/03/29 12:20:35;;;;;;;2.8;1;;;;;;;19.7;43.24512;939.3401;;;;
2023/03/29 12:23:00;;;;;;;2.9;0.8;;;;;;;19.33;42.40527;939.2664;;;;
2023/03/29 12:25:28;;;;;;;4;1.1;;;;;;;20.21;40.66895;939.248;;;;
2023/03/29 12:27:53;;;;;;;1.4;0.8;;;;;;;20.36;41.66406;939.2849;;;;
2023/03/29 12:30:20;;;;;;;0.8;0.6;;;;;;;18.42;42.57324;939.1692;;;;
2023/03/29 12:32:48;;;;;;;1.3;0.5;;;;;;;18.09;44.78418;939.3033;;;;
2023/03/29 12:35:17;;;;;;;2.5;0.9;;;;;;;18.36;43.62598;939.3807;;;;
2023/03/29 12:37:44;;;;;;;4.3;1.5;;;;;;;17.96;45.73438;939.1747;;;;
2023/03/29 12:40:13;;;;;;;1.2;0.6;;;;;;;18;45.19141;939.1231;;;;
2023/03/29 12:42:45;;;;;;;1.7;0.6;;;;;;;17.96;45.68848;939.1214;;;;
2023/03/29 12:45:20;;;;;;;1.6;0.7;;;;;;;18.11;47.88672;939.2714;;;;
2023/03/29 12:47:48;;;;;;;1.3;0.7;;;;;;;18.39;47.08105;939.1898;;;;
2023/03/29 12:50:15;;;;;;;4;0.9;;;;;;;18.06;46.17383;939.2925;;;;
2023/03/29 12:52:44;;;;;;;1.4;0.8;;;;;;;17.92;46.85645;939.3453;;;;
2023/03/29 12:55:09;;;;;;;1;0.9;;;;;;;17.26;47.65625;939.4174;;;;
2023/03/29 12:57:37;;;;;;;2.2;0.7;;;;;;;17.21;50.29395;939.4958;;;;
2023/03/29 13:00:04;;;;;;;4.5;1.5;;;;;;;17.35;48.92969;939.515;;;;
2023/03/29 13:02:29;;;;;;;2.7;1.3;;;;;;;16.33;49.62598;939.4128;;;;
2023/03/29 13:04:59;;;;;;;1.5;0.7;;;;;;;15.72;50.6084;939.4227;;;;
2023/03/29 13:07:25;;;;;;;1.1;0.8;;;;;;;15.59;51.0332;939.4844;;;;
2023/03/29 13:09:52;;;;;;;2.3;1;;;;;;;15.69;52.36035;939.5258;;;;
2023/03/29 13:12:18;;;;;;;1.7;1;;;;;;;15.5;54.5332;939.5499;;;;
2023/03/29 13:14:46;;;;;;;3.1;1;;;;;;;15.45;53.69434;939.4339;;;;
2023/03/29 13:17:11;;;;;;;1.7;0.7;;;;;;;15.27;53.31445;939.3635;;;;
2023/03/29 13:19:37;;;;;;;4.2;1.7;;;;;;;14.66;55.00391;939.3059;;;;
2023/03/29 13:22:02;;;;;;;2.7;1.1;;;;;;;14.82;55.68164;939.396;;;;
2023/03/29 13:24:27;;;;;;;2.5;1.2;;;;;;;14.99;54.30859;939.3358;;;;
2023/03/29 13:26:55;;;;;;;1.9;1;;;;;;;14.93;54.18457;939.4395;;;;
2023/03/29 13:29:20;;;;;;;2.2;1.1;;;;;;;14.8;54.50293;939.4672;;;;
2023/03/29 13:31:45;;;;;;;2.8;1.1;;;;;;;14.41;55.49121;939.4559;;;;
2023/03/29 13:34:10;;;;;;;3.7;1.1;;;;;;;14.07;56.59961;939.5471;;;;
2023/03/29 13:36:40;;;;;;;2.5;1.2;;;;;;;14.12;57.2959;939.5341;;;;
2023/03/29 13:39:06;;;;;;;3.9;1.6;;;;;;;14.44;58.05176;939.5854;;;;
2023/03/29 13:41:30;;;;;;;2.4;1.2;;;;;;;14.4;56.25;939.6498;;;;
2023/03/29 13:43:55;;;;;;;3;1.3;;;;;;;14.37;59.3916;939.71;;;;
2023/03/29 13:46:21;;;;;;;5.1;1.6;;;;;;;13.91;61.10059;939.647;;;;
2023/03/29 13:48:47;;;;;;;4.8;2.3;;;;;;;13.85;62.58789;939.8488;;;;
2023/03/29 13:51:11;;;;;;;3.9;1.8;;;;;;;13.62;64.0957;939.8342;;;;
2023/03/29 13:53:39;;;;;;;2;1.3;;;;;;;13.33;65.29395;939.9135;;;;
2023/03/29 13:56:04;;;;;;;5.9;2;;;;;;;13.33;65.30469;939.8119;;;;
2023/03/29 13:58:29;;;;;;;3.6;2.2;;;;;;;13.31;68.4502;939.8398;;;;
2023/03/29 14:00:54;;;;;;;4.1;1.9;;;;;;;13.42;66.7334;939.8786;;;;
2023/03/29 14:03:19;;;;;;;3.8;1.5;;;;;;;13.41;66.09961;939.8455;;;;
2023/03/29 14:05:48;;;;;;;4.9;1.7;;;;;;;13.41;69.98438;939.9311;;;;
2023/03/29 14:08:13;;;;;;;2.3;1.4;;;;;;;13.3;70.00195;940.0701;;;;
2023/03/29 14:10:38;;;;;;;4.5;2;;;;;;;12.95;72.5625;940.1778;;;;
2023/03/29 14:13:07;;;;;;;4.1;2.2;;;;;;;12.57;73.67969;940.1589;;;;
2023/03/29 14:15:32;;;;;;;3.5;1.6;;;;;;;12.21;76.19824;940.1987;;;;
2023/03/29 14:18:03;;;;;;;3.1;1.9;;;;;;;11.83;78.90332;940.2206;;;;
2023/03/29 14:20:29;;;;;;;4.4;2.3;;;;;;;11.83;80.9873;940.0331;;;;
2023/03/29 14:22:54;;;;;;;2.8;1.7;;;;;;;11.55;79.98535;940.0644;;;;
2023/03/29 14:25:26;;;;;;;4.8;1.9;;;;;;;11.56;82.4707;940.0844;;;;
2023/03/29 14:27:51;;;;;;;4.2;2.4;;;;;;;11.77;83.25293;940.1301;;;;
2023/03/29 14:30:18;;;;;;;7.7;4.1;;;;;;;11.79;83.01758;940.1291;;;;
2023/03/29 14:32:43;;;;;;;4.4;2.8;;;;;;;11.67;82.04492;940.1071;;;;
2023/03/29 14:35:13;;;;;;;5.3;2.3;;;;;;;11.71;83.77051;940.1353;;;;
2023/03/29 14:37:40;;;;;;;3.7;2;;;;;;;11.54;83.95313;940.0363;;;;
2023/03/29 14:40:14;;;;;;;6.2;3.3;;;;;;;11.46;86.83398;940.0843;;;;
2023/03/29 14:42:38;;;;;;;2.7;1.5;;;;;;;11.42;87.33984;940.1285;;;;
2023/03/29 14:45:09;;;;;;;2.7;1;;;;;;;11.35;86.00977;940.1547;;;;
2023/03/29 14:47:35;;;;;;;3.9;1.6;;;;;;;11.19;87.79785;940.2326;;;;
2023/03/29 14:50:00;;;;;;;4.3;1.6;;;;;;;10.98;87.8584;940.2636;;;;